EDT,Max TemperatureF,Mean TemperatureF,Min TemperatureF,Max Dew PointF,MeanDew PointF,Min DewpointF,Max Humidity, Mean Humidity, Min Humidity, Max Sea Level PressureIn, Mean Sea Level PressureIn, Min Sea Level PressureIn, Max VisibilityMiles, Mean VisibilityMiles, Min VisibilityMiles, Max Wind SpeedMPH, Mean Wind SpeedMPH, Max Gust SpeedMPH,PrecipitationIn, CloudCover, Events, WindDirDegrees
2013-10-1,66,60,53,55,53,46,94,78,52,29.96,29.91,29.87,10,10,10,13,8,,0.00,0,,320
2013-10-2,78,66,55,61,57,54,94,75,53,29.94,29.88,29.83,10,10,10,14,8,18,0.23,0,,261
2013-10-3,71,63,55,57,54,48,94,74,43,30.09,30.04,29.95,10,10,10,10,7,,0.15,0,,277
2013-10-4,66,57,48,59,54,46,100,88,68,30.09,30.06,30.04,10,10,5,10,4,,0.10,5,,296
2013-10-5,66,62,57,61,57,55,100,89,73,30.13,30.10,30.07,10,10,7,10,4,,0.05,6,,56
2013-10-6,60,58,55,57,56,52,100,92,88,30.23,30.18,30.12,10,9,3,13,5,,0.06,8,,79
2013-10-7,73,70,64,68,65,64,100,88,78,30.01,29.92,29.87,10,9,2,21,16,28,0.01,3,,185
2013-10-8,64,60,55,63,48,43,94,67,52,30.37,30.17,29.90,10,10,5,20,11,24,0.03,2,,348
2013-10-9,62,56,50,45,43,39,76,61,52,30.46,30.40,30.36,10,10,10,17,13,25,0.06,0,,67
2013-10-10,62,56,51,55,51,43,94,82,67,30.36,30.27,30.16,10,10,10,14,8,,0.04,1,,73
2013-10-11,62,58,53,55,54,48,94,85,72,30.16,30.13,30.11,10,10,10,15,10,20,0.05,2,,47
2013-10-12,62,58,53,55,52,46,94,83,77,30.39,30.27,30.14,10,10,9,18,11,26,0.06,5,,69
2013-10-13,60,48,35,46,43,30,93,72,55,30.45,30.41,30.36,10,10,5,15,10,20,0.12,3,,74
2013-10-14,60,45,30,46,40,27,93,78,55,30.41,30.34,30.28,10,10,10,7,2,,0.34,0,,157
2013-10-15,64,53,42,54,48,37,94,83,56,30.28,30.24,30.18,10,10,9,13,4,,0.06,3,,85
2013-10-16,59,50,42,57,53,39,100,95,87,30.18,30.05,29.92,10,6,0,12,6,,0.01,6,,46
2013-10-17,69,62,55,61,57,54,100,88,73,29.92,29.85,29.76,10,7,0,15,6,20,0.02,4,,225
2013-10-18,68,62,55,61,55,46,100,79,60,29.91,29.76,29.65,10,10,7,16,11,21,0.00,2,,260
2013-10-19,62,58,53,52,44,39,88,63,45,30.00,29.92,29.79,10,10,10,15,9,20,0.02,1,,227
2013-10-20,60,56,53,55,44,37,94,65,45,30.02,29.84,29.72,10,10,10,23,11,31,0.03,2,,278
2013-10-21,62,52,42,48,42,36,77,61,39,30.13,30.08,30.03,10,10,10,13,9,16,0.01,0,,240
2013-10-22,66,58,51,55,51,39,94,76,56,30.03,29.85,29.72,10,10,10,20,9,24,0.62,4,,203
2013-10-23,55,48,42,41,36,28,87,61,46,29.81,29.70,29.60,10,10,10,16,9,23,0.34,5,,349
2013-10-24,53,50,46,39,31,25,71,51,35,29.89,29.78,29.62,10,10,10,22,16,29,0.08,2,,277
2013-10-25,51,48,44,36,31,27,66,54,43,30.16,30.02,29.89,10,10,10,21,16,30,0.14,3,,300
2013-10-26,55,48,42,43,35,28,71,57,44,30.17,30.07,29.91,10,10,10,30,15,41,0.17,2,,246
2013-10-27,57,50,44,43,35,30,81,56,41,30.07,29.91,29.84,10,10,10,20,13,28,0.10,3,,276
2013-10-28,59,52,44,39,34,28,71,53,41,30.34,30.17,30.07,10,10,10,21,14,26,0.10,1,,287
2013-10-29,48,37,26,34,30,21,93,65,50,30.42,30.39,30.34,10,10,10,12,7,17,0.32,3,,47
2013-10-30,50,38,26,45,35,23,100,81,58,30.38,30.28,30.21,10,10,2,12,4,,0.19,4,,246
2013-10-31,62,47,32,57,49,30,94,86,72,30.26,30.12,29.88,10,9,0,21,7,30,0.17,5,,176